createdAt,value
2022-09-15T00:00:11.478Z,21.9
2022-09-15T00:15:02.853Z,21.8
2022-09-15T00:30:04.258Z,21.8
2022-09-15T00:45:03.209Z,21.8
2022-09-15T01:00:07.245Z,21.7
2022-09-15T01:15:03.221Z,21.7
2022-09-15T01:30:05.498Z,21.7
2022-09-15T01:45:02.106Z,21.6
2022-09-15T02:00:04.438Z,21.6
2022-09-15T02:15:02.807Z,21.6
2022-09-15T02:30:05.104Z,21.6
2022-09-15T02:45:03.784Z,21.5
2022-09-15T03:00:04.996Z,21.5
2022-09-15T03:15:02.220Z,21.5
2022-09-15T03:30:05.073Z,21.5
2022-09-15T03:45:03.577Z,21.5
2022-09-15T04:00:05.558Z,21.4
2022-09-15T04:15:03.379Z,21.4
2022-09-15T04:30:05.956Z,21.4
2022-09-15T04:45:03.077Z,21.4
2022-09-15T05:00:07.441Z,21.4
2022-09-15T05:15:02.324Z,21.3
2022-09-15T05:30:32.219Z,21.3
2022-09-15T05:45:02.268Z,21.3
2022-09-15T06:00:07.324Z,21.3
2022-09-15T06:15:06.547Z,21.3
2022-09-15T06:30:05.623Z,21.3
2022-09-15T06:45:04.612Z,21.4
2022-09-15T07:00:07.150Z,21.4
2022-09-15T07:15:02.833Z,21.4
2022-09-15T07:30:06.462Z,21.4
2022-09-15T07:45:02.934Z,21.4
2022-09-15T08:00:05.816Z,21.5
2022-09-15T08:15:03.079Z,21.5
2022-09-15T08:30:05.589Z,21.5
2022-09-15T09:00:04.433Z,21.7
2022-09-15T09:15:04.260Z,21.8
2022-09-15T09:30:07.201Z,21.8
2022-09-15T09:45:02.456Z,21.8
2022-09-15T10:00:08.046Z,21.8
2022-09-15T10:15:02.085Z,21.8
2022-09-15T10:30:07.411Z,22.0
2022-09-15T10:45:03.579Z,22
2022-09-15T11:00:09.602Z,21.9
2022-09-15T11:15:04.631Z,21.9
2022-09-15T11:30:08.495Z,22.0
2022-09-15T11:45:04.028Z,22
2022-09-15T12:00:08.541Z,22.1
2022-09-15T12:15:03.700Z,22.2
2022-09-15T12:30:04.028Z,22.2
2022-09-15T12:45:02.454Z,22.2
2022-09-15T13:00:09.840Z,22.2
2022-09-15T13:15:05.427Z,22.3
2022-09-15T13:30:06.976Z,22.3
2022-09-15T13:45:02.593Z,22.4
2022-09-15T14:00:04.231Z,22.4
2022-09-15T14:15:05.156Z,22.5
2022-09-15T14:30:08.364Z,22.5
2022-09-15T15:00:12.514Z,22.6
2022-09-15T15:15:06.033Z,22.6
2022-09-15T15:30:06.334Z,22.6
2022-09-15T15:45:02.423Z,22.5
2022-09-15T16:00:09.377Z,22.5
2022-09-15T16:15:04.948Z,22.4
2022-09-15T16:30:05.357Z,22.3
2022-09-15T16:45:02.454Z,22.2
2022-09-15T17:00:10.191Z,22.0
2022-09-15T17:15:03.172Z,22
2022-09-15T17:30:06.716Z,21.8
2022-09-15T17:45:04.529Z,21.8
2022-09-15T18:00:10.688Z,21.7
2022-09-15T18:15:04.126Z,21.6
2022-09-15T18:30:09.322Z,21.5
2022-09-15T18:45:03.871Z,21.5
2022-09-15T19:00:10.116Z,21.4
2022-09-15T19:15:03.679Z,21.4
2022-09-15T19:30:05.484Z,21.3
2022-09-15T19:45:02.472Z,21.3
2022-09-15T20:00:08.516Z,21.2
2022-09-15T20:15:03.517Z,21.2
2022-09-15T20:30:10.241Z,21.1
2022-09-15T20:45:03.011Z,21.1
2022-09-15T21:00:06.176Z,21.0
2022-09-15T21:15:04.171Z,21
2022-09-15T21:30:04.328Z,21
2022-09-15T21:45:02.224Z,20.9
2022-09-15T22:00:09.781Z,20.9
2022-09-15T22:15:03.166Z,20.9
2022-09-15T22:30:06.636Z,20.9
2022-09-15T22:45:02.577Z,20.8
2022-09-15T23:00:03.955Z,20.8
2022-09-15T23:15:02.728Z,20.8
2022-09-15T23:30:03.743Z,20.8
2022-09-15T23:45:04.025Z,20.7
